createdAt,value
2018-01-21T00:01:26.022Z,97.84
2018-01-21T00:03:53.660Z,97.84
2018-01-21T00:06:21.308Z,97.89
2018-01-21T00:08:49.055Z,98.40
2018-01-21T00:11:16.815Z,98.61
2018-01-21T00:13:44.493Z,99.04
2018-01-21T00:16:12.123Z,99.22
2018-01-21T00:18:39.900Z,99.35
2018-01-21T00:21:07.590Z,99.34
2018-01-21T00:23:35.210Z,98.87
2018-01-21T00:26:02.988Z,98.84
2018-01-21T00:28:30.663Z,98.89
2018-01-21T00:30:58.301Z,98.79
2018-01-21T00:33:26.141Z,98.39
2018-01-21T00:35:53.776Z,98.07
2018-01-21T00:38:21.516Z,97.92
2018-01-21T00:40:49.171Z,96.96
2018-01-21T00:43:16.790Z,96.92
2018-01-21T00:45:44.520Z,97.60
2018-01-21T00:48:12.226Z,97.58
2018-01-21T00:50:39.875Z,97.28
2018-01-21T00:53:07.595Z,97.15
2018-01-21T00:55:35.335Z,97.35
2018-01-21T00:58:03.007Z,97.10
2018-01-21T01:00:30.928Z,97.21
2018-01-21T01:02:58.632Z,96.89
2018-01-21T01:05:26.381Z,97.27
2018-01-21T01:07:54.146Z,97.57
2018-01-21T01:10:21.816Z,97.72
2018-01-21T01:12:49.447Z,97.58
2018-01-21T01:15:17.076Z,97.68
2018-01-21T01:17:44.766Z,97.46
2018-01-21T01:20:12.466Z,97.03
2018-01-21T01:22:40.141Z,97.06
2018-01-21T01:25:07.911Z,97.10
2018-01-21T01:27:35.642Z,97.35
2018-01-21T01:30:03.340Z,97.25
2018-01-21T01:32:32.777Z,97.10
2018-01-21T01:35:00.470Z,97.27
2018-01-21T01:37:28.467Z,96.76
2018-01-21T01:39:56.211Z,95.78
2018-01-21T01:42:23.822Z,96.55
2018-01-21T01:44:51.482Z,96.25
2018-01-21T01:47:19.112Z,95.89
2018-01-21T01:49:46.760Z,95.85
2018-01-21T01:52:14.531Z,95.86
2018-01-21T01:54:42.191Z,95.81
2018-01-21T01:57:09.856Z,95.62
2018-01-21T01:59:37.493Z,95.82
2018-01-21T02:02:05.136Z,95.89
2018-01-21T02:04:32.838Z,95.69
2018-01-21T02:07:00.488Z,96.19
2018-01-21T02:09:28.117Z,95.85
2018-01-21T02:11:55.832Z,96.33
2018-01-21T02:14:23.575Z,96.07
2018-01-21T02:16:51.211Z,95.45
2018-01-21T02:19:18.962Z,95.54
2018-01-21T02:21:46.731Z,95.14
2018-01-21T02:24:14.392Z,95.10
2018-01-21T02:26:42.040Z,95.21
2018-01-21T02:29:09.776Z,94.98
2018-01-21T02:31:37.606Z,95.11
2018-01-21T02:34:05.250Z,95.45
2018-01-21T02:36:33.210Z,95.96
2018-01-21T02:39:00.927Z,95.43
2018-01-21T02:41:28.595Z,94.94
2018-01-21T02:43:56.237Z,94.76
2018-01-21T02:46:24.093Z,95.78
2018-01-21T02:48:51.837Z,94.98
2018-01-21T02:51:19.555Z,95.51
2018-01-21T02:53:47.208Z,95.73
2018-01-21T02:56:14.871Z,95.98
2018-01-21T02:58:42.503Z,95.98
2018-01-21T03:01:10.126Z,96.02
2018-01-21T03:03:37.835Z,96.14
2018-01-21T03:06:05.466Z,95.44
2018-01-21T03:08:33.116Z,95.44
2018-01-21T03:11:00.882Z,95.94
2018-01-21T03:13:28.548Z,95.90
2018-01-21T03:15:56.181Z,96.08
2018-01-21T03:18:23.841Z,95.06
2018-01-21T03:20:51.517Z,94.67
2018-01-21T03:23:19.181Z,94.63
2018-01-21T03:25:46.841Z,92.79
2018-01-21T03:28:14.650Z,93.61
2018-01-21T03:30:42.347Z,93.46
2018-01-21T03:33:10.084Z,93.49
2018-01-21T03:35:37.736Z,93.63
2018-01-21T03:38:05.426Z,92.76
2018-01-21T03:40:33.030Z,93.16
2018-01-21T03:43:00.647Z,93.53
2018-01-21T03:45:28.455Z,93.67
2018-01-21T03:47:56.328Z,94.25
2018-01-21T03:50:24.276Z,93.52
2018-01-21T03:52:52.032Z,93.86
2018-01-21T03:55:19.667Z,93.90
2018-01-21T03:57:47.312Z,94.87
2018-01-21T04:00:14.931Z,94.31
2018-01-21T04:02:42.649Z,94.44
2018-01-21T04:05:10.347Z,94.90
2018-01-21T04:07:38.090Z,94.51
2018-01-21T04:10:05.797Z,94.52
2018-01-21T04:12:33.521Z,94.48
2018-01-21T04:15:01.320Z,93.33
2018-01-21T04:17:28.976Z,93.41
2018-01-21T04:19:56.616Z,93.93
2018-01-21T04:22:24.250Z,94.37
2018-01-21T04:24:51.876Z,94.38
2018-01-21T04:27:19.507Z,94.20
2018-01-21T04:29:47.166Z,93.55
2018-01-21T04:32:14.801Z,93.28
2018-01-21T04:34:42.477Z,93.77
2018-01-21T04:37:10.138Z,93.54
2018-01-21T04:39:37.778Z,93.67
2018-01-21T04:42:05.432Z,93.06
2018-01-21T04:44:33.113Z,93.73
2018-01-21T04:47:01.019Z,93.45
2018-01-21T04:49:28.803Z,93.73
2018-01-21T04:51:56.617Z,93.94
2018-01-21T04:54:24.407Z,94.20
2018-01-21T04:56:53.161Z,93.07
2018-01-21T04:59:20.807Z,93.06
2018-01-21T05:01:48.447Z,91.87
2018-01-21T05:04:16.202Z,92.70
2018-01-21T05:06:43.810Z,92.18
2018-01-21T05:09:11.472Z,92.28
2018-01-21T05:11:39.137Z,91.15
2018-01-21T05:14:06.856Z,91.19
2018-01-21T05:16:34.551Z,90.87
2018-01-21T05:19:02.192Z,90.28
2018-01-21T05:21:29.888Z,89.24
2018-01-21T05:23:57.543Z,89.82
2018-01-21T05:26:25.176Z,90.22
2018-01-21T05:28:52.866Z,89.39
2018-01-21T05:31:20.481Z,88.98
2018-01-21T05:33:48.341Z,89.12
2018-01-21T05:36:16.066Z,89.75
2018-01-21T05:38:43.696Z,89.25
2018-01-21T05:41:11.328Z,89.40
2018-01-21T05:43:38.988Z,89.75
2018-01-21T05:46:06.658Z,88.99
2018-01-21T05:48:34.276Z,88.63
2018-01-21T05:51:01.923Z,88.57
2018-01-21T05:53:29.786Z,88.29
2018-01-21T05:55:57.670Z,88.93
2018-01-21T05:58:25.311Z,88.73
2018-01-21T06:00:53.123Z,88.86
2018-01-21T06:03:20.793Z,88.97
2018-01-21T06:05:48.436Z,89.92
2018-01-21T06:08:16.063Z,89.96
2018-01-21T06:10:43.841Z,90.65
2018-01-21T06:13:11.523Z,89.66
2018-01-21T06:15:39.160Z,89.80
2018-01-21T06:18:06.831Z,90.08
2018-01-21T06:20:34.480Z,90.97
2018-01-21T06:23:02.123Z,90.80
2018-01-21T06:25:29.767Z,90.65
2018-01-21T06:27:57.414Z,90.83
2018-01-21T06:30:25.276Z,90.33
2018-01-21T06:32:52.911Z,90.39
2018-01-21T06:35:20.582Z,90.23
2018-01-21T06:37:48.292Z,90.00
2018-01-21T06:40:15.910Z,90.31
2018-01-21T06:42:43.634Z,89.75
2018-01-21T06:45:11.356Z,89.04
2018-01-21T06:47:39.052Z,89.54
2018-01-21T06:50:06.698Z,90.62
2018-01-21T06:52:34.330Z,90.70
2018-01-21T06:55:01.957Z,89.19
2018-01-21T06:57:29.676Z,90.02
2018-01-21T06:59:57.342Z,89.86
2018-01-21T07:02:24.993Z,89.24
2018-01-21T07:04:52.727Z,89.65
2018-01-21T07:07:20.464Z,90.26
2018-01-21T07:09:48.137Z,90.25
2018-01-21T07:12:15.793Z,89.38
2018-01-21T07:14:43.476Z,89.45
2018-01-21T07:17:11.127Z,89.40
2018-01-21T07:19:38.866Z,90.49
2018-01-21T07:22:06.501Z,90.95
2018-01-21T07:24:34.243Z,89.95
2018-01-21T07:27:01.938Z,90.30
2018-01-21T07:29:29.722Z,88.94
2018-01-21T07:31:57.527Z,88.70
2018-01-21T07:34:25.249Z,88.98
2018-01-21T07:36:52.912Z,89.74
2018-01-21T07:39:20.573Z,89.92
2018-01-21T07:41:48.215Z,90.14
2018-01-21T07:44:15.957Z,90.03
2018-01-21T07:46:43.571Z,90.85
2018-01-21T07:49:11.201Z,90.63
2018-01-21T07:51:38.873Z,90.78
2018-01-21T07:54:06.541Z,91.97
2018-01-21T07:56:34.178Z,92.04
2018-01-21T07:59:01.840Z,91.57
2018-01-21T08:01:29.471Z,91.80
2018-01-21T08:03:57.101Z,91.78
2018-01-21T08:06:24.720Z,91.58
2018-01-21T08:08:52.413Z,91.21
2018-01-21T08:11:20.120Z,91.81
2018-01-21T08:13:47.828Z,89.96
2018-01-21T08:16:15.467Z,89.72
2018-01-21T08:18:43.198Z,89.16
2018-01-21T08:21:10.847Z,89.40
2018-01-21T08:23:38.597Z,89.58
2018-01-21T08:26:06.346Z,89.93
2018-01-21T08:28:33.997Z,87.94
2018-01-21T08:31:01.692Z,87.36
2018-01-21T08:33:29.329Z,86.54
2018-01-21T08:36:02.513Z,86.02
2018-01-21T08:38:35.687Z,87.35
2018-01-21T08:41:08.952Z,86.55
2018-01-21T08:43:36.732Z,86.41
2018-01-21T08:46:05.914Z,86.17
2018-01-21T08:48:33.564Z,86.32
2018-01-21T08:51:01.302Z,86.43
2018-01-21T08:53:28.938Z,86.37
2018-01-21T08:55:56.624Z,85.71
2018-01-21T08:58:24.294Z,85.81
2018-01-21T09:00:52.664Z,85.76
2018-01-21T09:03:20.443Z,86.77
2018-01-21T09:05:48.215Z,87.09
2018-01-21T09:08:17.108Z,87.06
2018-01-21T09:10:44.782Z,86.63
2018-01-21T09:13:12.618Z,86.99
2018-01-21T09:15:40.372Z,86.92
2018-01-21T09:18:08.054Z,86.00
2018-01-21T09:20:35.725Z,86.09
2018-01-21T09:23:03.658Z,85.16
2018-01-21T09:25:31.579Z,84.59
2018-01-21T09:27:59.208Z,85.27
2018-01-21T09:30:26.972Z,83.50
2018-01-21T09:32:54.673Z,82.38
2018-01-21T09:35:22.329Z,82.35
2018-01-21T09:37:50.204Z,78.55
2018-01-21T09:40:17.895Z,75.19
2018-01-21T09:42:45.608Z,70.50
2018-01-21T09:45:13.247Z,68.79
2018-01-21T09:47:40.919Z,70.02
2018-01-21T09:50:08.543Z,72.12
2018-01-21T09:52:36.310Z,70.60
2018-01-21T09:55:04.009Z,72.15
2018-01-21T09:57:31.822Z,68.99
2018-01-21T09:59:59.509Z,67.75
2018-01-21T10:02:27.279Z,68.05
2018-01-21T10:04:55.117Z,68.97
2018-01-21T10:07:22.813Z,67.01
2018-01-21T10:09:50.649Z,66.67
2018-01-21T10:12:18.324Z,63.25
2018-01-21T10:14:45.977Z,63.36
2018-01-21T10:17:13.768Z,62.21
2018-01-21T10:19:41.573Z,65.20
2018-01-21T10:22:09.515Z,66.11
2018-01-21T10:24:37.197Z,64.82
2018-01-21T10:27:04.974Z,68.71
2018-01-21T10:29:32.649Z,65.67
2018-01-21T10:32:00.323Z,62.72
2018-01-21T10:34:28.002Z,58.97
2018-01-21T10:36:55.678Z,55.97
2018-01-21T10:39:23.379Z,58.81
2018-01-21T10:41:51.057Z,60.41
2018-01-21T10:44:18.803Z,62.19
2018-01-21T10:46:46.564Z,62.73
2018-01-21T10:49:14.252Z,62.36
2018-01-21T10:51:41.988Z,62.68
2018-01-21T10:54:09.638Z,63.05
2018-01-21T10:56:37.518Z,62.72
2018-01-21T10:59:05.259Z,64.09
2018-01-21T11:01:33.029Z,64.88
2018-01-21T11:04:00.680Z,63.90
2018-01-21T11:06:28.359Z,63.78
2018-01-21T11:08:56.088Z,57.66
2018-01-21T11:11:23.798Z,52.95
2018-01-21T11:13:51.516Z,50.02
2018-01-21T11:16:19.423Z,50.98
2018-01-21T11:18:47.245Z,53.30
2018-01-21T11:21:14.996Z,56.29
2018-01-21T11:23:42.630Z,59.26
2018-01-21T11:26:10.349Z,64.74
2018-01-21T11:28:38.048Z,64.24
2018-01-21T11:31:05.675Z,63.02
2018-01-21T11:33:33.346Z,63.80
2018-01-21T11:36:01.092Z,62.75
2018-01-21T11:38:28.720Z,62.34
2018-01-21T11:40:56.374Z,60.83
2018-01-21T11:43:24.029Z,63.50
2018-01-21T11:45:52.708Z,65.08
2018-01-21T11:48:20.438Z,64.76
2018-01-21T11:50:48.099Z,64.67
2018-01-21T11:53:15.844Z,66.10
2018-01-21T11:55:43.663Z,65.81
2018-01-21T11:58:11.417Z,66.71
2018-01-21T12:00:39.094Z,66.37
2018-01-21T12:03:06.838Z,66.70
2018-01-21T12:05:34.679Z,66.10
2018-01-21T12:08:02.472Z,64.66
2018-01-21T12:10:30.158Z,63.81
2018-01-21T12:12:57.898Z,64.14
2018-01-21T12:15:25.580Z,64.31
2018-01-21T12:17:53.208Z,62.50
2018-01-21T12:20:20.873Z,62.04
2018-01-21T12:22:48.529Z,61.17
2018-01-21T12:25:16.267Z,61.94
2018-01-21T12:27:44.083Z,62.68
2018-01-21T12:30:11.967Z,63.18
2018-01-21T12:32:39.922Z,63.31
2018-01-21T12:35:07.695Z,65.10
2018-01-21T12:37:35.435Z,63.73
2018-01-21T12:40:03.190Z,64.25
2018-01-21T12:42:31.042Z,63.91
2018-01-21T12:44:58.743Z,62.56
2018-01-21T12:47:26.564Z,63.60
2018-01-21T12:49:54.208Z,64.44
2018-01-21T12:52:21.886Z,61.71
2018-01-21T12:54:49.538Z,62.87
2018-01-21T12:57:17.249Z,62.39
2018-01-21T12:59:44.918Z,64.26
2018-01-21T13:02:12.672Z,64.12
2018-01-21T13:04:40.355Z,63.76
2018-01-21T13:07:08.983Z,63.45
2018-01-21T13:09:36.674Z,64.53
2018-01-21T13:12:04.459Z,64.28
2018-01-21T13:14:32.130Z,62.29
2018-01-21T13:16:59.831Z,62.81
2018-01-21T13:19:27.473Z,63.43
2018-01-21T13:21:55.145Z,64.55
2018-01-21T13:24:22.794Z,63.95
2018-01-21T13:26:50.592Z,65.83
2018-01-21T13:29:18.230Z,64.36
2018-01-21T13:31:45.908Z,63.11
2018-01-21T13:34:13.589Z,64.49
2018-01-21T13:36:41.367Z,66.48
2018-01-21T13:39:09.242Z,63.51
2018-01-21T13:41:36.893Z,64.09
2018-01-21T13:44:04.552Z,63.55
2018-01-21T13:46:32.207Z,61.99
2018-01-21T13:48:59.872Z,61.41
2018-01-21T13:51:27.505Z,62.70
2018-01-21T13:53:55.204Z,61.90
2018-01-21T13:56:22.875Z,60.53
2018-01-21T13:58:50.739Z,58.78
2018-01-21T14:01:18.508Z,58.22
2018-01-21T14:03:46.157Z,57.33
2018-01-21T14:06:13.880Z,56.78
2018-01-21T14:08:41.584Z,56.17
2018-01-21T14:11:09.274Z,55.42
2018-01-21T14:13:36.979Z,53.56
2018-01-21T14:16:04.743Z,53.65
2018-01-21T14:18:32.439Z,58.27
2018-01-21T14:21:00.207Z,59.92
2018-01-21T14:23:27.935Z,58.92
2018-01-21T14:25:55.699Z,56.12
2018-01-21T14:28:23.464Z,54.68
2018-01-21T14:30:51.160Z,58.55
2018-01-21T14:33:19.023Z,56.95
2018-01-21T14:35:46.750Z,58.44
2018-01-21T14:38:14.404Z,57.84
2018-01-21T14:40:42.112Z,58.97
2018-01-21T14:43:09.783Z,60.46
2018-01-21T14:45:37.583Z,60.48
2018-01-21T14:48:05.303Z,60.42
2018-01-21T14:50:32.942Z,60.10
2018-01-21T14:53:00.685Z,60.98
2018-01-21T14:55:28.549Z,61.35
2018-01-21T14:57:56.358Z,63.43
2018-01-21T15:00:24.027Z,64.18
2018-01-21T15:02:51.852Z,63.74
2018-01-21T15:05:19.637Z,65.21
2018-01-21T15:07:47.338Z,66.80
2018-01-21T15:10:15.028Z,68.22
2018-01-21T15:12:42.893Z,66.94
2018-01-21T15:15:10.716Z,68.69
2018-01-21T15:17:38.599Z,68.71
2018-01-21T15:20:06.255Z,69.19
2018-01-21T15:22:33.903Z,69.48
2018-01-21T15:25:01.595Z,69.93
2018-01-21T15:27:29.282Z,70.90
2018-01-21T15:29:56.947Z,70.95
2018-01-21T15:32:24.595Z,71.22
2018-01-21T15:34:52.412Z,72.62
2018-01-21T15:37:20.053Z,73.16
2018-01-21T15:39:47.704Z,78.97
2018-01-21T15:42:15.388Z,79.41
2018-01-21T15:44:43.152Z,79.46
2018-01-21T15:47:10.823Z,79.90
2018-01-21T15:49:38.654Z,81.41
2018-01-21T15:52:06.660Z,82.17
2018-01-21T15:54:34.332Z,82.31
2018-01-21T15:57:01.977Z,81.75
2018-01-21T15:59:30.541Z,80.49
2018-01-21T16:01:58.318Z,79.01
2018-01-21T16:04:25.987Z,81.59
2018-01-21T16:06:53.738Z,80.78
2018-01-21T16:09:21.428Z,79.05
2018-01-21T16:11:49.156Z,79.78
2018-01-21T16:14:16.829Z,82.33
2018-01-21T16:16:44.505Z,84.03
2018-01-21T16:19:12.337Z,83.91
2018-01-21T16:21:40.143Z,87.43
2018-01-21T16:24:07.953Z,86.41
2018-01-21T16:26:35.630Z,85.76
2018-01-21T16:29:03.486Z,84.43
2018-01-21T16:31:31.369Z,85.78
2018-01-21T16:33:59.252Z,85.86
2018-01-21T16:36:27.707Z,86.77
2018-01-21T16:39:00.821Z,86.90
2018-01-21T16:41:28.667Z,87.25
2018-01-21T16:43:56.334Z,89.58
2018-01-21T16:46:24.032Z,90.09
2018-01-21T16:48:51.845Z,90.25
2018-01-21T16:51:19.615Z,89.83
2018-01-21T16:53:47.302Z,88.87
2018-01-21T16:56:14.977Z,88.12
2018-01-21T16:58:42.641Z,87.78
2018-01-21T17:01:11.028Z,86.98
2018-01-21T17:03:38.828Z,87.01
2018-01-21T17:06:06.809Z,87.58
2018-01-21T17:08:34.834Z,89.27
2018-01-21T17:11:03.535Z,87.94
2018-01-21T17:13:31.615Z,88.67
2018-01-21T17:15:59.316Z,88.20
2018-01-21T17:18:27.275Z,87.84
2018-01-21T17:20:54.972Z,87.90
2018-01-21T17:23:22.632Z,87.26
2018-01-21T17:25:50.559Z,86.95
2018-01-21T17:28:18.228Z,88.00
2018-01-21T17:30:45.890Z,87.62
2018-01-21T17:33:13.590Z,87.99
2018-01-21T17:35:41.279Z,88.40
2018-01-21T17:38:08.964Z,88.44
2018-01-21T17:40:36.845Z,88.21
2018-01-21T17:43:04.545Z,88.61
2018-01-21T17:45:32.307Z,88.68
2018-01-21T17:48:00.155Z,88.79
2018-01-21T17:50:28.140Z,88.82
2018-01-21T17:52:55.826Z,89.01
2018-01-21T17:55:23.644Z,88.90
2018-01-21T17:57:51.403Z,89.22
2018-01-21T18:00:19.151Z,89.45
2018-01-21T18:02:46.815Z,89.32
2018-01-21T18:05:14.546Z,88.66
2018-01-21T18:07:42.331Z,89.23
2018-01-21T18:10:10.001Z,88.84
2018-01-21T18:12:37.914Z,89.14
2018-01-21T18:15:05.598Z,89.07
2018-01-21T18:17:33.413Z,89.81
2018-01-21T18:20:01.059Z,89.62
2018-01-21T18:22:28.915Z,89.53
2018-01-21T18:24:57.503Z,90.67
2018-01-21T18:27:25.181Z,90.97
2018-01-21T18:29:52.832Z,90.73
2018-01-21T18:32:20.543Z,90.88
2018-01-21T18:34:48.229Z,90.77
2018-01-21T18:37:15.976Z,90.86
2018-01-21T18:39:43.620Z,90.83
2018-01-21T18:42:11.286Z,89.80
2018-01-21T18:44:38.946Z,89.80
2018-01-21T18:47:06.770Z,90.11
2018-01-21T18:49:36.629Z,89.55
2018-01-21T18:52:04.543Z,89.97
2018-01-21T18:54:32.302Z,90.58
2018-01-21T18:57:00.042Z,91.15
2018-01-21T18:59:27.768Z,91.15
2018-01-21T19:01:55.426Z,91.40
2018-01-21T19:04:23.300Z,91.37
2018-01-21T19:06:51.068Z,90.42
2018-01-21T19:09:18.837Z,91.37
2018-01-21T19:11:46.604Z,91.93
2018-01-21T19:14:14.279Z,91.65
2018-01-21T19:16:41.951Z,91.60
2018-01-21T19:19:09.605Z,91.59
2018-01-21T19:21:37.252Z,92.08
2018-01-21T19:24:04.900Z,91.86
2018-01-21T19:26:32.564Z,91.67
2018-01-21T19:29:00.345Z,91.52
2018-01-21T19:31:28.014Z,90.95
2018-01-21T19:33:55.785Z,89.97
2018-01-21T19:36:23.585Z,89.65
2018-01-21T19:38:54.140Z,90.55
2018-01-21T19:41:24.591Z,89.83
2018-01-21T19:44:03.214Z,89.28
2018-01-21T19:46:30.981Z,89.99
2018-01-21T19:48:58.690Z,90.87
2018-01-21T19:51:26.375Z,90.42
2018-01-21T19:53:54.061Z,90.74
2018-01-21T19:56:21.808Z,91.14
2018-01-21T19:58:49.600Z,91.54
2018-01-21T20:01:17.318Z,90.54
2018-01-21T20:03:45.126Z,90.13
2018-01-21T20:06:13.110Z,90.60
2018-01-21T20:08:40.769Z,90.86
2018-01-21T20:11:08.496Z,90.56
2018-01-21T20:13:36.286Z,90.17
2018-01-21T20:16:03.983Z,89.43
2018-01-21T20:18:31.809Z,88.65
2018-01-21T20:20:59.546Z,89.40
2018-01-21T20:23:27.303Z,89.94
2018-01-21T20:25:54.955Z,90.08
2018-01-21T20:28:22.710Z,90.29
2018-01-21T20:30:50.414Z,90.19
2018-01-21T20:33:18.160Z,90.01
2018-01-21T20:35:45.886Z,90.20
2018-01-21T20:38:13.626Z,91.09
2018-01-21T20:40:41.444Z,91.00
2018-01-21T20:43:09.399Z,92.46
2018-01-21T20:45:37.190Z,93.05
2018-01-21T20:48:04.981Z,93.08
2018-01-21T20:50:32.746Z,92.49
2018-01-21T20:56:07.000Z,91.48
2018-01-21T20:58:34.646Z,91.43
2018-01-21T21:01:02.516Z,91.09
2018-01-21T21:03:30.211Z,91.24
2018-01-21T21:05:58.010Z,91.23
2018-01-21T21:08:25.976Z,91.04
2018-01-21T21:10:53.739Z,90.97
2018-01-21T21:13:21.397Z,91.74
2018-01-21T21:15:49.306Z,91.68
2018-01-21T21:18:16.991Z,91.89
2018-01-21T21:20:44.650Z,91.57
2018-01-21T21:23:12.493Z,91.39
2018-01-21T21:25:40.181Z,91.22
2018-01-21T21:28:07.983Z,91.07
2018-01-21T21:47:22.741Z,90.57
2018-01-21T21:49:50.360Z,90.50
2018-01-21T21:52:18.157Z,91.20
2018-01-21T21:54:45.776Z,92.15
2018-01-21T21:57:13.432Z,92.17
2018-01-21T21:59:41.194Z,92.05
2018-01-21T22:02:08.909Z,92.01
2018-01-21T22:04:36.539Z,91.21
2018-01-21T22:07:04.164Z,90.62
2018-01-21T22:09:35.659Z,90.40
2018-01-21T22:14:37.765Z,89.85
2018-01-21T22:17:22.634Z,89.79
2018-01-21T22:19:50.254Z,89.81
2018-01-21T22:22:17.955Z,89.70
2018-01-21T22:24:45.763Z,89.91
2018-01-21T22:27:13.475Z,90.90
2018-01-21T22:29:41.134Z,91.85
2018-01-21T22:32:08.766Z,92.00
2018-01-21T22:34:36.400Z,91.97
2018-01-21T22:37:04.176Z,91.70
2018-01-21T22:39:32.079Z,92.06
2018-01-21T22:41:59.796Z,91.97
2018-01-21T22:44:27.523Z,91.51
2018-01-21T22:46:55.226Z,91.67
2018-01-21T22:49:22.844Z,92.25
2018-01-21T22:51:50.525Z,92.65
2018-01-21T22:54:18.170Z,92.97
2018-01-21T22:56:45.790Z,92.28
2018-01-21T22:59:13.414Z,91.43
2018-01-21T23:01:40.970Z,90.99
2018-01-21T23:04:08.594Z,91.02
2018-01-21T23:06:36.264Z,90.94
2018-01-21T23:09:03.898Z,91.57
2018-01-21T23:11:31.601Z,91.75
2018-01-21T23:13:59.193Z,91.02
2018-01-21T23:16:26.819Z,91.27
2018-01-21T23:18:54.458Z,91.70
2018-01-21T23:21:22.095Z,91.37
2018-01-21T23:23:49.776Z,90.63
2018-01-21T23:26:17.480Z,91.37
2018-01-21T23:28:45.106Z,91.66
2018-01-21T23:31:12.714Z,92.44
2018-01-21T23:33:40.350Z,92.92
2018-01-21T23:36:07.949Z,92.43
2018-01-21T23:38:35.567Z,92.75
2018-01-21T23:41:03.174Z,93.75
2018-01-21T23:43:30.969Z,94.34
2018-01-21T23:45:58.593Z,95.25
2018-01-21T23:48:26.230Z,95.28
2018-01-21T23:50:54.058Z,95.30
2018-01-21T23:53:21.761Z,95.36
2018-01-21T23:55:49.413Z,95.48
2018-01-21T23:58:17.450Z,95.96
